Time;durP1;ratioP1;P1;durP2;ratioP2;P2;SDS_P1;SDS_P2;PMS_P1;PMS_P2;Temp;Humidity;BMP_temperature;BMP_pressure;BME280_temperature;BME280_humidity;BME280_pressure;Samples;Min_cycle;Max_cycle;Signal;HPM_P1;HPM_P2
2021/11/22 00:00:18;;;;;;;9.57;6.60;;;;;;;0.76;100.00;100976.13;680201;28;1250;-55
2021/11/22 00:00:43;;;;;;;10.07;7.05;;;;;;;0.72;100.00;100975.94;680887;28;1169;-52
2021/11/22 00:01:08;;;;;;;10.93;6.88;;;;;;;0.67;100.00;100980.91;680788;29;1150;-52
2021/11/22 00:01:29;;;;;;;9.68;6.60;;;;;;;0.72;100.00;100981.06;680310;28;3437;-51
2021/11/22 00:01:51;;;;;;;8.98;6.05;;;;;;;0.79;100.00;100985.66;680246;29;1331;-52
2021/11/22 00:02:12;;;;;;;8.52;6.50;;;;;;;0.92;100.00;100982.75;680529;28;1233;-50
2021/11/22 00:02:32;;;;;;;8.73;6.60;;;;;;;0.99;100.00;100978.72;681155;28;4469;-52
2021/11/22 00:02:55;;;;;;;9.13;6.70;;;;;;;0.93;100.00;100983.63;680301;28;1138;-51
2021/11/22 00:03:16;;;;;;;9.82;6.72;;;;;;;0.88;100.00;100988.59;681469;28;1518;-52
2021/11/22 00:03:38;;;;;;;9.10;6.63;;;;;;;0.82;100.00;100993.53;680323;29;1359;-50
2021/11/22 00:03:58;;;;;;;8.93;6.07;;;;;;;0.82;100.00;100990.94;681271;29;1090;-53
2021/11/22 00:04:19;;;;;;;8.30;6.00;;;;;;;0.79;100.00;100991.69;680143;29;3115;-51
2021/11/22 00:04:39;;;;;;;7.85;5.97;;;;;;;0.77;100.00;100989.88;681083;28;4123;-52
2021/11/22 00:05:00;;;;;;;8.87;6.37;;;;;;;0.76;100.00;100990.69;679648;28;2205;-53
2021/11/22 00:05:20;;;;;;;9.65;6.50;;;;;;;0.77;100.00;100992.44;681360;28;1133;-51
2021/11/22 00:05:41;;;;;;;10.83;7.27;;;;;;;0.77;100.00;100992.44;681429;28;4547;-50
2021/11/22 00:06:01;;;;;;;10.80;6.50;;;;;;;0.75;100.00;100988.91;683058;28;1319;-50
2021/11/22 00:06:21;;;;;;;9.37;6.20;;;;;;;0.72;100.00;100992.28;682935;28;1302;-53
2021/11/22 00:06:42;;;;;;;10.80;6.40;;;;;;;0.77;100.00;100990.75;682913;28;1441;-51
2021/11/22 00:07:03;;;;;;;9.90;6.23;;;;;;;0.81;100.00;100994.31;683806;28;1176;-51
2021/11/22 00:07:23;;;;;;;10.35;6.10;;;;;;;0.76;100.00;100995.81;680077;28;3323;-54
2021/11/22 00:07:44;;;;;;;10.77;6.20;;;;;;;0.72;100.00;100992.28;679811;28;1197;-51
2021/11/22 00:08:06;;;;;;;13.05;6.85;;;;;;;0.70;100.00;100991.31;681120;29;1267;-52
2021/11/22 00:08:26;;;;;;;9.73;6.20;;;;;;;0.73;100.00;100994.00;679286;29;1184;-52
2021/11/22 00:08:47;;;;;;;9.90;6.40;;;;;;;0.72;100.00;100993.94;679942;28;4483;-50
2021/11/22 00:09:07;;;;;;;9.13;6.23;;;;;;;0.68;100.00;100993.81;681389;28;1467;-52
2021/11/22 00:09:27;;;;;;;10.02;6.38;;;;;;;0.67;100.00;101002.34;681273;29;1257;-53
2021/11/22 00:09:48;;;;;;;11.13;6.50;;;;;;;0.64;100.00;100993.66;680120;28;1392;-51
2021/11/22 00:10:09;;;;;;;10.07;6.22;;;;;;;0.65;100.00;100993.72;680709;28;1200;-53
2021/11/22 00:10:29;;;;;;;9.57;6.28;;;;;;;0.66;100.00;100997.16;680610;28;3230;-53
2021/11/22 00:10:50;;;;;;;9.50;6.17;;;;;;;0.65;100.00;100998.84;680439;28;1346;-55
2021/11/22 00:11:10;;;;;;;10.65;6.45;;;;;;;0.65;100.00;100993.72;680451;28;1211;-52
2021/11/22 00:11:32;;;;;;;9.85;6.40;;;;;;;0.65;100.00;100997.97;680374;28;4731;-52
2021/11/22 00:11:52;;;;;;;10.30;6.35;;;;;;;0.64;100.00;101002.25;681130;28;1458;-51
2021/11/22 00:12:13;;;;;;;9.13;6.05;;;;;;;0.64;100.00;100991.94;680155;28;1101;-52
2021/11/22 00:12:34;;;;;;;10.33;6.17;;;;;;;0.65;100.00;100993.72;679769;29;1267;-51
2021/11/22 00:12:54;;;;;;;10.73;6.32;;;;;;;0.67;100.00;100993.78;679915;28;1181;-50
2021/11/22 00:13:15;;;;;;;8.98;6.13;;;;;;;0.61;100.00;100994.41;679872;28;2146;-51
2021/11/22 00:13:36;;;;;;;10.32;6.60;;;;;;;0.61;100.00;100986.69;680253;28;3682;-51
2021/11/22 00:13:56;;;;;;;10.15;6.25;;;;;;;0.66;100.00;100995.44;680018;29;1141;-51
2021/11/22 00:14:17;;;;;;;9.87;6.30;;;;;;;0.70;100.00;100990.44;680986;28;1482;-50
2021/11/22 00:14:38;;;;;;;10.27;6.40;;;;;;;0.63;100.00;100992.75;680943;28;4442;-51
2021/11/22 00:14:58;;;;;;;9.80;6.18;;;;;;;0.62;100.00;100998.75;681355;29;1030;-54
2021/11/22 00:15:19;;;;;;;9.07;6.27;;;;;;;0.61;100.00;100991.84;680982;28;1208;-50
2021/11/22 00:15:39;;;;;;;10.23;6.20;;;;;;;0.59;100.00;100995.16;681192;28;1295;-52
2021/11/22 00:16:00;;;;;;;8.88;6.10;;;;;;;0.54;100.00;101001.78;680886;28;1489;-51
2021/11/22 00:16:20;;;;;;;10.53;6.70;;;;;;;0.51;100.00;100994.81;680505;28;3323;-52
2021/11/22 00:16:40;;;;;;;10.50;6.27;;;;;;;0.47;100.00;100998.06;679936;29;1453;-51
2021/11/22 00:17:01;;;;;;;10.57;5.97;;;;;;;0.46;100.00;101004.06;680746;29;1195;-54
2021/11/22 00:17:22;;;;;;;9.10;5.90;;;;;;;0.47;100.00;100996.41;680245;28;1247;-52
2021/11/22 00:17:42;;;;;;;9.53;6.10;;;;;;;0.46;100.00;101004.94;680294;28;4586;-53
2021/11/22 00:18:04;;;;;;;9.27;6.60;;;;;;;0.47;100.00;101000.66;680924;29;1220;-50
2021/11/22 00:18:25;;;;;;;8.77;6.43;;;;;;;0.48;100.00;100999.84;681133;28;1014;-50
2021/11/22 00:18:45;;;;;;;8.27;6.00;;;;;;;0.55;100.00;101003.56;679791;28;1213;-53
2021/11/22 00:19:06;;;;;;;8.10;5.77;;;;;;;0.66;100.00;100997.16;680414;28;3253;-53
2021/11/22 00:19:27;;;;;;;9.07;6.55;;;;;;;0.67;100.00;100994.63;680161;28;3773;-50
2021/11/22 00:19:47;;;;;;;9.93;6.50;;;;;;;0.67;100.00;100997.22;685779;28;1522;-50
2021/11/22 00:20:11;;;;;;;9.07;6.03;;;;;;;0.70;100.00;100995.59;684970;28;1501;-50
2021/11/22 00:20:32;;;;;;;8.95;6.13;;;;;;;0.74;100.00;100997.47;685673;28;4586;-51
2021/11/22 00:20:52;;;;;;;9.93;6.50;;;;;;;0.75;100.00;101000.09;685450;28;1191;-52
2021/11/22 00:21:14;;;;;;;10.10;6.23;;;;;;;0.70;100.00;101000.75;685583;28;1183;-51
2021/11/22 00:21:35;;;;;;;8.73;6.00;;;;;;;0.64;100.00;101002.25;684247;28;1204;-51
2021/11/22 00:21:55;;;;;;;9.37;6.27;;;;;;;0.57;100.00;101007.06;679633;28;1098;-55
2021/11/22 00:22:15;;;;;;;9.77;6.20;;;;;;;0.54;100.00;101005.25;678301;29;2039;-51
2021/11/22 00:22:36;;;;;;;7.90;5.87;;;;;;;0.64;100.00;101002.25;678241;29;3780;-51
2021/11/22 00:22:57;;;;;;;7.78;5.85;;;;;;;0.71;100.00;101005.06;678266;29;1443;-50
2021/11/22 00:23:17;;;;;;;9.23;6.13;;;;;;;0.67;100.00;101004.06;678406;29;1169;-54
2021/11/22 00:23:38;;;;;;;9.10;5.77;;;;;;;0.67;100.00;101002.34;678361;28;4454;-51
2021/11/22 00:24:01;;;;;;;8.73;6.18;;;;;;;0.73;100.00;101004.31;681358;29;1414;-50
2021/11/22 00:24:21;;;;;;;7.97;5.95;;;;;;;0.74;100.00;101000.91;679943;29;1328;-51
2021/11/22 00:24:42;;;;;;;9.07;5.97;;;;;;;0.73;100.00;101000.84;681274;28;1371;-51
2021/11/22 00:25:04;;;;;;;9.02;5.88;;;;;;;0.68;100.00;101004.13;680023;28;2235;-51
2021/11/22 00:25:25;;;;;;;7.82;5.43;;;;;;;0.68;100.00;101004.13;680618;28;3548;-51
2021/11/22 00:25:45;;;;;;;9.27;5.40;;;;;;;0.70;100.00;100996.47;681044;28;1178;-51
2021/11/22 00:26:05;;;;;;;8.65;5.63;;;;;;;0.74;100.00;101000.06;680639;28;1323;-52
2021/11/22 00:26:26;;;;;;;8.17;5.50;;;;;;;0.80;100.00;101000.28;680799;28;1160;-50
2021/11/22 00:26:46;;;;;;;8.33;5.70;;;;;;;0.81;100.00;100999.47;679436;28;4516;-50
2021/11/22 00:27:08;;;;;;;8.70;5.60;;;;;;;0.83;100.00;100996.16;677127;29;1452;-50
2021/11/22 00:27:28;;;;;;;7.50;5.40;;;;;;;0.84;100.00;101003.06;677029;29;1247;-50
2021/11/22 00:27:51;;;;;;;6.90;5.50;;;;;;;0.82;100.00;100996.97;680051;29;1472;-50
2021/11/22 00:28:21;;;;;;;8.40;5.75;;;;;;;0.80;100.00;101000.28;677976;29;3421;-50
2021/11/22 00:28:48;;;;;;;8.95;5.60;;;;;;;0.76;100.00;101000.97;683110;28;1234;-50
2021/11/22 00:29:30;;;;;;;8.75;5.30;;;;;;;0.81;100.00;101002.91;679366;28;4479;-51
2021/11/22 00:30:00;;;;;;;9.43;5.70;;;;;;;0.76;100.00;100998.41;678440;29;1359;-50
2021/11/22 00:30:45;;;;;;;7.93;5.13;;;;;;;0.70;100.00;101003.31;683445;28;1247;-50
2021/11/22 00:31:06;;;;;;;7.85;5.40;;;;;;;0.72;100.00;101001.66;678862;28;3397;-52
2021/11/22 00:31:41;;;;;;;8.15;5.35;;;;;;;0.70;100.00;101004.19;680479;28;1953;-50
2021/11/22 00:32:09;;;;;;;8.27;5.57;;;;;;;0.81;100.00;101012.34;680778;29;1284;-52
2021/11/22 00:32:48;;;;;;;8.63;5.40;;;;;;;0.89;100.00;101003.25;677789;28;4606;-51
2021/11/22 00:33:22;;;;;;;7.45;5.50;;;;;;;0.87;100.00;101010.00;677847;29;1404;-50
2021/11/22 00:34:03;;;;;;;9.30;5.40;;;;;;;0.77;100.00;101011.34;674902;29;2300;-51
2021/11/22 00:34:55;;;;;;;8.43;5.30;;;;;;;0.66;100.00;101007.44;677233;29;3554;-50
2021/11/22 00:35:33;;;;;;;9.55;5.60;;;;;;;0.76;100.00;101000.97;680584;28;4582;-50
2021/11/22 00:35:54;;;;;;;8.10;5.43;;;;;;;0.86;100.00;101013.41;679940;29;1232;-51
2021/11/22 00:36:14;;;;;;;6.87;5.50;;;;;;;0.96;100.00;101009.50;679837;28;1198;-53
2021/11/22 00:36:34;;;;;;;8.30;5.70;;;;;;;1.02;100.00;101002.91;680916;28;956;-50
2021/11/22 00:36:55;;;;;;;7.80;5.47;;;;;;;1.00;100.00;101007.13;680533;29;1934;-51
2021/11/22 00:37:19;;;;;;;8.48;5.20;;;;;;;0.94;100.00;101005.97;680347;28;3457;-51
2021/11/22 00:37:41;;;;;;;7.32;4.90;;;;;;;0.88;100.00;101004.03;680022;29;1610;-50
2021/11/22 00:38:04;;;;;;;7.72;5.20;;;;;;;0.86;100.00;101008.28;680349;29;1398;-51
2021/11/22 00:38:25;;;;;;;8.07;5.30;;;;;;;0.84;100.00;101005.63;680947;28;1205;-51
2021/11/22 00:38:45;;;;;;;9.37;5.27;;;;;;;0.85;100.00;101004.78;683207;28;4432;-51
2021/11/22 00:39:06;;;;;;;8.73;5.60;;;;;;;0.86;100.00;101005.69;686381;28;1163;-50
2021/11/22 00:39:26;;;;;;;7.77;5.80;;;;;;;0.86;100.00;101010.84;685651;28;1278;-52
2021/11/22 00:39:47;;;;;;;7.95;5.50;;;;;;;0.84;100.00;101008.22;685909;28;1080;-52
2021/11/22 00:40:10;;;;;;;8.83;5.20;;;;;;;0.83;100.00;101009.03;685443;28;3870;-50
2021/11/22 00:40:32;;;;;;;8.68;5.60;;;;;;;0.80;100.00;101003.75;684537;28;1320;-51
2021/11/22 00:40:54;;;;;;;8.68;5.60;;;;;;;0.75;100.00;101009.50;680857;28;1263;-50
2021/11/22 00:41:14;;;;;;;9.63;5.70;;;;;;;0.73;100.00;101006.00;680784;28;1223;-51
2021/11/22 00:41:35;;;;;;;9.45;5.80;;;;;;;0.72;100.00;101009.38;680143;28;4441;-53
2021/11/22 00:41:55;;;;;;;7.73;5.77;;;;;;;0.76;100.00;101006.13;681030;29;1175;-52
2021/11/22 00:42:16;;;;;;;8.00;5.70;;;;;;;0.84;100.00;101009.88;681006;28;1146;-50
2021/11/22 00:42:38;;;;;;;7.97;5.78;;;;;;;0.86;100.00;101010.84;680974;28;1283;-50
2021/11/22 00:42:59;;;;;;;8.10;6.00;;;;;;;0.83;100.00;101006.44;680631;29;3026;-51
2021/11/22 00:43:22;;;;;;;7.22;5.45;;;;;;;0.80;100.00;101005.44;680779;28;3436;-51
2021/11/22 00:43:43;;;;;;;8.63;5.50;;;;;;;0.80;100.00;101013.16;679876;29;1224;-53
2021/11/22 00:44:04;;;;;;;10.40;5.90;;;;;;;0.74;100.00;101011.22;680637;29;1167;-52
2021/11/22 00:44:24;;;;;;;8.18;5.80;;;;;;;0.72;100.00;101014.53;680453;28;1136;-50
2021/11/22 00:44:45;;;;;;;8.23;5.88;;;;;;;0.72;100.00;101010.28;679734;28;4736;-52
2021/11/22 00:45:06;;;;;;;8.37;5.83;;;;;;;0.74;100.00;101011.22;679978;29;1196;-51
2021/11/22 00:45:27;;;;;;;8.50;6.38;;;;;;;0.74;100.00;101010.34;680334;28;1105;-52
2021/11/22 00:45:52;;;;;;;8.77;6.22;;;;;;;0.67;100.00;101017.78;680689;29;3119;-50
2021/11/22 00:46:13;;;;;;;9.13;6.07;;;;;;;0.67;100.00;101016.94;679600;29;3266;-53
2021/11/22 00:46:33;;;;;;;9.38;5.97;;;;;;;0.68;100.00;101023.84;680131;28;1549;-52
2021/11/22 00:46:53;;;;;;;9.90;6.20;;;;;;;0.65;100.00;101021.13;681169;28;1406;-54
2021/11/22 00:47:14;;;;;;;9.13;5.93;;;;;;;0.70;100.00;101019.63;680652;29;1225;-51
2021/11/22 00:47:36;;;;;;;9.13;6.43;;;;;;;0.75;100.00;101020.69;679275;28;4547;-52
2021/11/22 00:47:58;;;;;;;9.52;6.20;;;;;;;0.81;100.00;101017.50;680187;29;1280;-50
2021/11/22 00:48:21;;;;;;;9.10;5.97;;;;;;;0.82;100.00;101017.56;681054;28;1327;-52
2021/11/22 00:48:41;;;;;;;8.95;6.20;;;;;;;0.83;100.00;101014.16;682289;28;1169;-56
2021/11/22 00:49:03;;;;;;;9.05;5.93;;;;;;;0.87;100.00;101019.44;683168;28;3502;-53
2021/11/22 00:49:24;;;;;;;8.50;6.15;;;;;;;0.89;100.00;101017.78;683256;28;1103;-52
2021/11/22 00:49:44;;;;;;;9.17;6.20;;;;;;;0.88;100.00;101019.50;684116;28;1081;-54
2021/11/22 00:50:06;;;;;;;8.82;6.30;;;;;;;0.88;100.00;101022.06;681878;28;1350;-54
2021/11/22 00:50:27;;;;;;;9.34;6.14;;;;;;;0.88;100.00;101016.06;682608;28;1247;-53
2021/11/22 00:50:50;;;;;;;9.23;6.20;;;;;;;0.87;100.00;101022.00;680311;28;5436;-50
2021/11/22 00:51:10;;;;;;;10.00;6.50;;;;;;;0.84;100.00;101018.50;680382;28;1208;-52
2021/11/22 00:51:31;;;;;;;9.37;6.00;;;;;;;0.86;100.00;101018.56;680800;28;2012;-51
2021/11/22 00:51:51;;;;;;;7.70;5.80;;;;;;;0.92;100.00;101023.09;679085;29;3191;-50
2021/11/22 00:52:11;;;;;;;8.10;5.87;;;;;;;0.92;100.00;101023.94;679767;28;4349;-51
2021/11/22 00:52:32;;;;;;;8.70;6.03;;;;;;;0.91;100.00;101026.47;680859;28;1135;-53
2021/11/22 00:52:53;;;;;;;8.37;5.53;;;;;;;0.88;100.00;101022.06;681426;28;1293;-53
2021/11/22 00:53:14;;;;;;;8.63;5.88;;;;;;;0.88;100.00;101022.06;680806;29;1280;-50
2021/11/22 00:53:34;;;;;;;10.03;6.20;;;;;;;0.85;100.00;101022.81;679406;28;4630;-53
2021/11/22 00:53:54;;;;;;;10.80;6.50;;;;;;;0.82;100.00;101024.41;679581;29;1193;-60
2021/11/22 00:54:15;;;;;;;10.13;6.43;;;;;;;0.79;100.00;101022.59;679522;29;1259;-52
2021/11/22 00:54:36;;;;;;;9.37;6.20;;;;;;;0.77;100.00;101028.47;679294;29;1205;-52
2021/11/22 00:54:56;;;;;;;9.30;6.20;;;;;;;0.76;100.00;101029.28;679845;28;3714;-54
2021/11/22 00:55:17;;;;;;;9.20;6.20;;;;;;;0.77;100.00;101028.47;680512;29;1249;-53
2021/11/22 00:55:37;;;;;;;9.00;6.20;;;;;;;0.78;100.00;101025.09;680324;29;1181;-53
2021/11/22 00:55:58;;;;;;;9.10;6.50;;;;;;;0.77;100.00;101029.34;679424;28;1435;-50
2021/11/22 00:56:19;;;;;;;9.98;6.35;;;;;;;0.78;100.00;101025.09;680897;28;1248;-51
2021/11/22 00:56:40;;;;;;;8.05;6.05;;;;;;;0.82;100.00;101029.56;680390;28;4439;-55
2021/11/22 00:57:01;;;;;;;8.63;6.05;;;;;;;0.92;100.00;101029.09;680169;28;1393;-52
2021/11/22 00:57:21;;;;;;;9.68;6.20;;;;;;;1.02;100.00;101026.09;680495;28;1093;-50
2021/11/22 00:57:41;;;;;;;10.07;6.17;;;;;;;1.11;100.00;101028.13;680081;29;3388;-50
2021/11/22 00:58:02;;;;;;;8.68;5.85;;;;;;;1.16;100.00;101023.16;680242;29;3465;-50
2021/11/22 00:58:22;;;;;;;10.20;6.07;;;;;;;1.19;100.00;101028.44;679421;29;1524;-54
2021/11/22 00:58:44;;;;;;;9.55;5.80;;;;;;;1.23;100.00;101030.31;680773;28;1453;-51
2021/11/22 00:59:04;;;;;;;9.90;5.90;;;;;;;1.27;100.00;101034.75;679860;29;1538;-51
2021/11/22 00:59:24;;;;;;;8.32;5.50;;;;;;;1.25;100.00;101031.25;680030;29;1191;-52
2021/11/22 00:59:45;;;;;;;7.50;5.50;;;;;;;1.23;100.00;101035.44;679834;28;4646;-51
2021/11/22 01:00:09;;;;;;;8.30;5.63;;;;;;;1.27;100.00;101032.19;679412;29;1153;-50
2021/11/22 01:00:30;;;;;;;9.07;5.68;;;;;;;1.25;100.00;101035.53;680704;28;1132;-50
2021/11/22 01:00:50;;;;;;;8.93;5.70;;;;;;;1.23;100.00;101038.03;681905;28;3404;-50
2021/11/22 01:01:11;;;;;;;8.07;5.30;;;;;;;1.21;100.00;101036.25;680114;29;1124;-54
2021/11/22 01:01:31;;;;;;;8.23;5.60;;;;;;;1.17;100.00;101036.09;679999;29;1314;-52
2021/11/22 01:01:52;;;;;;;9.37;5.70;;;;;;;1.15;100.00;101034.28;679691;28;1192;-54
2021/11/22 01:02:12;;;;;;;9.02;5.70;;;;;;;1.14;100.00;101035.13;681880;28;1307;-55
2021/11/22 01:02:32;;;;;;;8.00;5.63;;;;;;;1.11;100.00;101034.97;682059;28;4620;-50
2021/11/22 01:02:53;;;;;;;8.23;5.43;;;;;;;1.10;100.00;101028.94;682423;28;1212;-50
2021/11/22 01:03:15;;;;;;;7.85;5.15;;;;;;;1.09;100.00;101036.63;682735;28;1186;-53
2021/11/22 01:03:36;;;;;;;8.05;5.55;;;;;;;1.06;100.00;101033.94;683504;28;1220;-50
2021/11/22 01:03:56;;;;;;;8.40;5.70;;;;;;;1.08;100.00;101030.59;682614;28;3666;-53
2021/11/22 01:04:17;;;;;;;8.05;5.50;;;;;;;1.14;100.00;101030.84;682259;28;1652;-51
2021/11/22 01:04:38;;;;;;;8.23;5.60;;;;;;;1.21;100.00;101036.25;682973;28;1231;-51
2021/11/22 01:04:59;;;;;;;9.48;5.90;;;;;;;1.22;100.00;101038.88;683206;28;1212;-51
2021/11/22 01:05:19;;;;;;;9.38;5.88;;;;;;;1.28;100.00;101038.22;679957;29;1220;-53
2021/11/22 01:05:40;;;;;;;9.37;5.93;;;;;;;1.32;100.00;101037.53;679665;28;4805;-52
2021/11/22 01:06:00;;;;;;;8.52;5.65;;;;;;;1.35;100.00;101040.22;680874;29;1196;-52
2021/11/22 01:06:21;;;;;;;8.30;5.50;;;;;;;1.34;100.00;101038.44;680671;28;1347;-51
2021/11/22 01:06:41;;;;;;;8.38;5.50;;;;;;;1.32;100.00;101037.53;680133;28;3274;-51
2021/11/22 01:07:01;;;;;;;8.90;5.70;;;;;;;1.31;100.00;101035.75;680175;28;4015;-51
2021/11/22 01:07:22;;;;;;;8.60;5.80;;;;;;;1.27;100.00;101047.63;679873;29;1383;-51
2021/11/22 01:07:43;;;;;;;9.07;5.47;;;;;;;1.24;100.00;101044.06;680495;28;1426;-50
2021/11/22 01:08:04;;;;;;;10.30;5.88;;;;;;;1.20;100.00;101045.66;678496;29;1465;-52
2021/11/22 01:08:25;;;;;;;8.52;6.00;;;;;;;1.17;100.00;101036.09;678204;29;1117;-50
2021/11/22 01:08:45;;;;;;;9.67;5.90;;;;;;;1.14;100.00;101035.97;677602;28;4600;-52
2021/11/22 01:09:05;;;;;;;9.82;5.78;;;;;;;1.11;100.00;101047.84;678519;29;1073;-51
2021/11/22 01:09:26;;;;;;;10.30;6.10;;;;;;;1.11;100.00;101040.13;680950;29;1081;-51
2021/11/22 01:09:49;;;;;;;9.60;6.15;;;;;;;1.10;100.00;101043.53;680878;28;3466;-53
2021/11/22 01:10:11;;;;;;;9.63;6.28;;;;;;;1.09;100.00;101046.91;680536;29;1736;-51
2021/11/22 01:10:32;;;;;;;9.25;6.20;;;;;;;1.09;100.00;101049.50;682354;28;1529;-51
2021/11/22 01:10:53;;;;;;;8.50;5.90;;;;;;;1.08;100.00;101046.06;681699;28;1037;-50
2021/11/22 01:11:13;;;;;;;9.20;5.82;;;;;;;1.13;100.00;101041.06;682271;28;1252;-53
2021/11/22 01:11:34;;;;;;;9.40;6.20;;;;;;;1.12;100.00;101047.03;682358;28;4359;-52
2021/11/22 01:11:55;;;;;;;9.37;6.13;;;;;;;1.10;100.00;101046.09;682822;28;1252;-54
2021/11/22 01:12:15;;;;;;;8.47;6.00;;;;;;;1.09;100.00;101044.34;683195;28;1340;-53
2021/11/22 01:12:36;;;;;;;8.30;6.10;;;;;;;1.09;100.00;101046.91;680091;28;3250;-50
2021/11/22 01:12:57;;;;;;;8.95;5.82;;;;;;;1.04;100.00;101044.16;680340;28;1831;-53
2021/11/22 01:13:18;;;;;;;9.53;5.97;;;;;;;1.04;100.00;101044.16;680803;28;1400;-50
2021/11/22 01:13:38;;;;;;;10.97;6.17;;;;;;;1.04;100.00;101048.41;681215;29;1444;-51
2021/11/22 01:13:59;;;;;;;9.13;6.10;;;;;;;1.00;100.00;101045.72;679686;28;1161;-51
2021/11/22 01:14:19;;;;;;;9.80;6.40;;;;;;;0.98;100.00;101046.47;680034;29;1133;-53
2021/11/22 01:14:40;;;;;;;11.57;6.40;;;;;;;0.97;100.00;101043.03;682495;28;4955;-51
2021/11/22 01:15:03;;;;;;;9.95;5.80;;;;;;;0.99;100.00;101045.69;682877;28;1204;-51
2021/11/22 01:15:24;;;;;;;8.90;6.30;;;;;;;0.99;100.00;101050.81;682170;28;1088;-52
2021/11/22 01:15:44;;;;;;;8.52;6.43;;;;;;;0.98;100.00;101038.75;679463;28;3502;-51
2021/11/22 01:16:05;;;;;;;7.85;5.95;;;;;;;1.00;100.00;101043.16;679618;28;1468;-53
2021/11/22 01:16:28;;;;;;;8.35;5.82;;;;;;;1.04;100.00;101041.59;680775;28;1314;-52
2021/11/22 01:16:49;;;;;;;9.35;6.10;;;;;;;1.06;100.00;101041.66;682607;28;1184;-50
2021/11/22 01:17:09;;;;;;;9.53;6.10;;;;;;;1.04;100.00;101048.41;682066;28;1117;-54
2021/11/22 01:17:30;;;;;;;10.57;6.47;;;;;;;1.04;100.00;101040.69;682889;28;4377;-50
2021/11/22 01:17:53;;;;;;;10.20;6.50;;;;;;;1.02;100.00;101051.84;684842;28;1296;-54
2021/11/22 01:18:13;;;;;;;9.90;6.43;;;;;;;1.01;100.00;101044.03;685527;28;1112;-53
2021/11/22 01:18:34;;;;;;;9.80;6.28;;;;;;;1.01;100.00;101044.91;684229;28;3201;-51
2021/11/22 01:18:54;;;;;;;9.70;6.07;;;;;;;1.00;100.00;101048.31;679992;28;1973;-52
2021/11/22 01:19:15;;;;;;;9.43;6.10;;;;;;;1.02;100.00;101045.78;680216;28;1148;-51
2021/11/22 01:19:35;;;;;;;8.90;6.28;;;;;;;1.00;100.00;101050.88;681198;29;1552;-51
2021/11/22 01:19:56;;;;;;;9.63;6.03;;;;;;;1.01;100.00;101047.50;680932;28;1392;-50
2021/11/22 01:20:21;;;;;;;8.57;5.82;;;;;;;1.02;100.00;101051.84;679966;29;1118;-50
2021/11/22 01:20:41;;;;;;;9.60;5.78;;;;;;;1.09;100.00;101052.06;679753;28;4763;-51
2021/11/22 01:21:02;;;;;;;9.65;6.10;;;;;;;1.06;100.00;101055.41;680060;29;1304;-53
2021/11/22 01:21:23;;;;;;;10.65;6.78;;;;;;;1.02;100.00;101050.94;679635;28;1304;-50
2021/11/22 01:21:45;;;;;;;9.13;6.43;;;;;;;1.00;100.00;101062.88;680026;29;2183;-53
2021/11/22 01:22:05;;;;;;;8.50;6.03;;;;;;;1.00;100.00;101068.91;680268;29;1072;-54
2021/11/22 01:22:26;;;;;;;10.27;6.68;;;;;;;0.98;100.00;101061.94;679855;29;1297;-53
2021/11/22 01:22:47;;;;;;;10.90;6.77;;;;;;;0.97;100.00;101063.63;679885;28;1004;-51
2021/11/22 01:23:13;;;;;;;9.15;6.03;;;;;;;0.95;100.00;101065.25;680468;28;1201;-53
2021/11/22 01:23:34;;;;;;;9.77;6.10;;;;;;;0.95;100.00;101065.25;679494;28;4607;-55
2021/11/22 01:23:54;;;;;;;9.20;6.05;;;;;;;0.94;100.00;101068.66;680578;29;1145;-55
2021/11/22 01:24:15;;;;;;;10.50;6.47;;;;;;;0.94;100.00;101071.25;680627;29;1177;-51
2021/11/22 01:24:36;;;;;;;11.60;6.33;;;;;;;0.92;100.00;101070.28;682947;28;3485;-50
2021/11/22 01:24:56;;;;;;;9.60;6.10;;;;;;;0.95;100.00;101072.97;682997;28;1080;-51
2021/11/22 01:25:17;;;;;;;9.73;6.10;;;;;;;1.01;100.00;101073.25;682522;28;1121;-50
2021/11/22 01:25:39;;;;;;;10.07;6.20;;;;;;;1.09;100.00;101073.53;682666;28;1243;-51
2021/11/22 01:26:00;;;;;;;9.48;6.05;;;;;;;1.11;100.00;101082.22;681805;28;1429;-50
2021/11/22 01:26:21;;;;;;;8.93;5.93;;;;;;;1.12;100.00;101073.69;682806;28;1350;-53
2021/11/22 01:26:41;;;;;;;9.17;6.17;;;;;;;1.11;100.00;101073.59;679116;28;4655;-51
2021/11/22 01:27:02;;;;;;;10.40;6.33;;;;;;;1.10;100.00;101074.44;680072;29;1169;-51
2021/11/22 01:27:22;;;;;;;9.63;6.18;;;;;;;1.17;100.00;101073.84;679681;28;1960;-51
2021/11/22 01:27:43;;;;;;;10.30;6.20;;;;;;;1.15;100.00;101075.47;682655;28;3424;-50
2021/11/22 01:28:04;;;;;;;10.43;5.97;;;;;;;1.13;100.00;101069.41;683321;28;1263;-51
2021/11/22 01:28:24;;;;;;;8.77;6.13;;;;;;;1.12;100.00;101068.53;682580;28;1049;-52
2021/11/22 01:28:46;;;;;;;9.10;6.23;;;;;;;1.14;100.00;101072.03;682801;28;1237;-51
2021/11/22 01:29:06;;;;;;;9.02;6.15;;;;;;;1.12;100.00;101070.22;686170;28;1211;-51
2021/11/22 01:29:27;;;;;;;8.67;6.50;;;;;;;1.11;100.00;101077.06;684060;28;1080;-51
2021/11/22 01:29:47;;;;;;;10.67;6.50;;;;;;;1.10;100.00;101077.00;680097;28;4460;-53
2021/11/22 01:30:11;;;;;;;9.15;6.07;;;;;;;1.12;100.00;101072.78;680080;29;1114;-51
2021/11/22 01:30:32;;;;;;;8.60;5.80;;;;;;;1.16;100.00;101084.97;681036;28;3456;-52
2021/11/22 01:30:53;;;;;;;9.57;6.43;;;;;;;1.16;100.00;101080.72;680780;28;2282;-51
2021/11/22 01:31:14;;;;;;;9.70;6.40;;;;;;;1.14;100.00;101074.59;680523;28;1145;-51
2021/11/22 01:31:34;;;;;;;9.70;6.18;;;;;;;1.17;100.00;101082.44;679530;29;1902;-53
2021/11/22 01:31:55;;;;;;;8.87;5.97;;;;;;;1.19;100.00;101085.09;680181;29;1287;-52
2021/11/22 01:32:15;;;;;;;9.30;6.37;;;;;;;1.18;100.00;101083.34;679634;29;1181;-55
2021/11/22 01:32:36;;;;;;;9.67;6.47;;;;;;;1.17;100.00;101089.31;680132;28;4637;-52
2021/11/22 01:32:57;;;;;;;10.05;6.20;;;;;;;1.16;100.00;101082.41;680449;28;1141;-51
2021/11/22 01:33:19;;;;;;;9.88;6.28;;;;;;;1.19;100.00;101090.22;680865;28;3233;-52
2021/11/22 01:33:40;;;;;;;9.02;6.22;;;;;;;1.18;100.00;101096.22;680548;28;2659;-51
2021/11/22 01:34:01;;;;;;;9.77;5.97;;;;;;;1.19;100.00;101090.22;681167;29;1475;-51
2021/11/22 01:34:21;;;;;;;8.77;5.78;;;;;;;1.21;100.00;101091.19;680100;28;1118;-51
2021/11/22 01:34:41;;;;;;;9.20;5.97;;;;;;;1.26;100.00;101092.25;680390;28;1375;-51
2021/11/22 01:35:02;;;;;;;9.07;5.80;;;;;;;1.24;100.00;101093.00;679729;28;1387;-51
2021/11/22 01:35:23;;;;;;;7.90;5.60;;;;;;;1.24;100.00;101082.72;680021;29;1284;-51
2021/11/22 01:35:45;;;;;;;8.67;5.40;;;;;;;1.24;100.00;101093.00;678515;28;4473;-52
2021/11/22 01:36:05;;;;;;;8.30;5.50;;;;;;;1.25;100.00;101089.63;680034;29;1263;-54
2021/11/22 01:36:25;;;;;;;7.70;5.40;;;;;;;1.24;100.00;101096.47;676855;29;3389;-51
2021/11/22 01:36:46;;;;;;;10.20;6.07;;;;;;;1.23;100.00;101097.25;677637;29;1081;-52
2021/11/22 01:37:06;;;;;;;10.50;6.30;;;;;;;1.23;100.00;101101.56;683017;28;1446;-53
2021/11/22 01:37:27;;;;;;;10.90;6.30;;;;;;;1.21;100.00;101098.91;682912;28;1466;-53
2021/11/22 01:37:48;;;;;;;10.23;6.25;;;;;;;1.22;100.00;101102.38;683175;28;1267;-51
2021/11/22 01:38:09;;;;;;;11.82;6.35;;;;;;;1.21;100.00;101101.50;682256;28;1020;-54
2021/11/22 01:38:29;;;;;;;9.75;6.38;;;;;;;1.21;100.00;101096.34;685957;28;1643;-55
2021/11/22 01:38:50;;;;;;;8.70;6.43;;;;;;;1.21;100.00;101108.34;684306;28;4766;-54
2021/11/22 01:39:11;;;;;;;8.70;6.27;;;;;;;1.18;100.00;101104.81;680130;29;1125;-53
2021/11/22 01:39:31;;;;;;;8.45;6.20;;;;;;;1.19;100.00;101105.69;681341;28;3434;-52
2021/11/22 01:39:52;;;;;;;9.25;5.95;;;;;;;1.21;100.00;101098.91;680811;28;1385;-54
2021/11/22 01:40:16;;;;;;;8.80;5.40;;;;;;;1.24;100.00;101104.19;680132;28;1153;-55
2021/11/22 01:40:36;;;;;;;8.25;5.90;;;;;;;1.25;100.00;101105.94;681681;28;1200;-52
2021/11/22 01:40:57;;;;;;;8.98;6.43;;;;;;;1.26;100.00;101106.81;679715;28;1244;-55
2021/11/22 01:41:17;;;;;;;10.52;6.55;;;;;;;1.24;100.00;101106.75;680157;28;1204;-51
2021/11/22 01:41:38;;;;;;;9.73;6.30;;;;;;;1.24;100.00;101109.34;680080;28;4532;-54
2021/11/22 01:41:58;;;;;;;8.70;6.32;;;;;;;1.25;100.00;101111.09;680248;29;944;-52
2021/11/22 01:42:18;;;;;;;9.47;6.30;;;;;;;1.29;100.00;101112.13;678526;28;2699;-52
2021/11/22 01:42:41;;;;;;;8.67;6.30;;;;;;;1.31;100.00;101111.34;680585;28;3787;-53
2021/11/22 01:43:02;;;;;;;8.20;6.07;;;;;;;1.28;100.00;101111.22;680543;29;1157;-53